Aviation Digital Data Service (ADDS)

Output produced by METARs form (0511 UTC 20 October 2017)
found at http://aviationweather.gov/adds/metars/
 
KBTV 192337Z 2000/2024 22010G18KT P6SM FEW150 
     FM201100 31006KT P6SM SKC 
     FM201600 33010KT P6SM SKC